Detall de PIREP

Printer-friendly versionPDF version

[2011/01/26 16:42:00]
Flight IATA:CT2211
Pilot Number:042
Company ICAO:CAT
Aircraft Type:B763/F
PAX:180
Departing Airport: LFPG
Destination Airport: LFMP
Alternate Airport:LFBD
Online: VATSIM
Route:ERIXU UN860 ETAMO UN855 OLRAK UZ131 BADAM UY27 SIJAN
Flight Level:F370
No Slew and time accel
No pause
Crash detect
Detect pilot in Cockpit between each 30 and 45 minutes
16:42 Zero fuel Weight: 244976 Lbs, Fuel Weight: 161131 Lbs
16:42 VATSIM:LFPG 261630Z 10004KT 7000 FEW003 SCT007 BKN027 04/03 Q1007 NOSIG
16:42 VATSIM:LFMP 261600Z 10007KT CAVOK 08/M02 Q1006 NOSIG
16:42 VOICE CATALONIAN
16:52 Parking Brakes off
16:58 Take-off
16:58 Take off Weight: 403047 Lbs
16:58 Wind: 139 @ 004 Knots Heading: 264
16:58 POS N48 59 49 E002 34 45
16:58 Gear Up: 185 Knots
16:58 Flaps:2 at 185 Knots
16:58 Flaps:1 at 178 Knots
16:59 Flaps:0 at 226 Knots
17:13 Wind:161@064 Knots Heading: 176 Ground Speed: 368 Knots Altitude 33507 ft
17:16 TOC
17:16 Fuel Weight: 149390 Lb
17:17 TOD
17:17 Fuel Weight: 149168 Lb
17:28 Wind:172@066 Knots Heading: 160 Ground Speed: 371 Knots Altitude 34786 ft
17:43 Wind:212@054 Knots Heading: 169 Ground Speed: 391 Knots Altitude 34422 ft
17:58 Wind:332@001 Knots Heading: 186 Ground Speed: 282 Knots Altitude 9366 ft
18:01 Flaps:1 at 236 Knots
18:02 Flaps:2 at 218 Knots
18:06 Flaps:3 at 209 Knots
18:08 Gear Down: 166 Knots
18:09 Flaps:4 at 162 Knots
18:09 Flaps:5 at 155 Knots
18:10 Flaps:6 at 149 Knots
18:12 TouchDown:Rate -223 ft/min Speed: 138 Knots
18:12 VATSIM:LFMP 261800Z 34001KT 9999 BKN040 05/M02 Q1006 NOSIG
18:12 Land
18:12 Wind:122@002 Knots
18:12 Heading: 327
18:12 Flight Duration: 01:14
18:12 Landing Weight: 384738 Lbs
18:12 POS N42 44 56 E002 51 57
18:17 Parking brakes on
18:17 Block to Block Duration: 01:25
18:17 Final Fuel: 138820 Lbls
18:17 Spent Fuel: 22310 Lbls
18:17 Flight Length: 422 NM
18:17 TOD Land Length: 314 NM

Exportar CSV

Powered by Drupal - Modified by Danger4k